Time;durP1;ratioP1;P1;durP2;ratioP2;P2;SDS_P1;SDS_P2;PMS_P1;PMS_P2;Temp;Humidity;BMP_temperature;BMP_pressure;BME280_temperature;BME280_humidity;BME280_pressure;Samples;Min_cycle;Max_cycle;Signal;HPM_P1;HPM_P2
2022/09/24 00:00:39;;;;;;;13.20;8.35;;;14.00;99.90;;;;;;5061408;28;20803;-77
2022/09/24 00:03:05;;;;;;;13.25;8.20;;;14.00;99.90;;;;;;5061524;28;20053;-77
2022/09/24 00:05:39;;;;;;;13.75;8.35;;;14.00;99.90;;;;;;5066778;28;20342;-77
2022/09/24 00:08:07;;;;;;;13.63;8.55;;;14.00;99.90;;;;;;5064035;28;20025;-77
2022/09/24 00:10:38;;;;;;;12.40;8.32;;;14.00;99.90;;;;;;5063802;28;20036;-77
2022/09/24 00:13:05;;;;;;;12.60;8.48;;;14.00;99.90;;;;;;5061605;28;20111;-76
2022/09/24 00:15:36;;;;;;;13.30;8.18;;;14.00;99.90;;;;;;5064829;28;20028;-76
2022/09/24 00:18:02;;;;;;;10.25;7.40;;;14.00;99.90;;;;;;5060327;28;20419;-77
2022/09/24 00:20:31;;;;;;;13.30;7.88;;;14.00;99.90;;;;;;5065393;28;20063;-77
2022/09/24 00:22:58;;;;;;;11.52;7.97;;;13.90;99.90;;;;;;5040075;28;20430;-76
2022/09/24 00:28:08;;;;;;;11.15;7.57;;;13.90;99.90;;;;;;5063196;28;20047;-76
2022/09/24 00:30:36;;;;;;;14.30;7.70;;;13.90;99.90;;;;;;5058676;28;20435;-77
2022/09/24 00:33:02;;;;;;;11.90;7.25;;;13.90;99.90;;;;;;5061483;28;20488;-76
2022/09/24 00:35:30;;;;;;;12.40;7.70;;;13.90;99.90;;;;;;5061248;28;20067;-76
2022/09/24 00:37:57;;;;;;;14.18;7.82;;;13.90;99.90;;;;;;5061493;28;20488;-77
2022/09/24 00:40:35;;;;;;;12.15;7.55;;;13.90;99.90;;;;;;5042706;28;20025;-76
2022/09/24 00:43:01;;;;;;;14.75;8.20;;;13.90;99.90;;;;;;5061175;28;20747;-76
2022/09/24 00:45:29;;;;;;;11.50;6.97;;;13.90;99.90;;;;;;5045166;28;20393;-76
2022/09/24 00:47:57;;;;;;;12.63;7.50;;;13.90;99.90;;;;;;5063366;28;20059;-76
2022/09/24 00:50:30;;;;;;;15.18;7.63;;;13.90;99.90;;;;;;5053690;28;20039;-76
2022/09/24 00:53:08;;;;;;;10.30;6.75;;;13.90;99.90;;;;;;5065571;28;20032;-77
2022/09/24 00:55:36;;;;;;;8.98;6.43;;;13.90;99.90;;;;;;5062145;28;20085;-77
2022/09/24 00:58:07;;;;;;;11.05;7.10;;;13.90;99.90;;;;;;5060719;28;20036;-76
2022/09/24 01:00:35;;;;;;;10.93;6.38;;;13.90;99.90;;;;;;5058333;28;20564;-77
2022/09/24 01:03:08;;;;;;;10.32;6.25;;;13.80;99.90;;;;;;5066226;28;20025;-77
2022/09/24 01:05:36;;;;;;;9.73;7.15;;;13.80;99.90;;;;;;5050297;28;20395;-77
2022/09/24 01:08:03;;;;;;;11.43;6.47;;;13.80;99.90;;;;;;5063235;28;20032;-76
2022/09/24 01:10:48;;;;;;;7.93;6.25;;;13.80;99.90;;;;;;5067963;28;20024;-77
2022/09/24 01:13:54;;;;;;;10.70;6.63;;;13.80;99.90;;;;;;5068294;28;20107;-76
2022/09/24 01:16:36;;;;;;;7.82;6.43;;;13.80;99.90;;;;;;5043111;28;20029;-76
2022/09/24 01:19:28;;;;;;;11.10;7.13;;;13.80;99.90;;;;;;5062551;28;20028;-77
2022/09/24 01:21:57;;;;;;;11.00;6.50;;;13.80;99.90;;;;;;5059624;28;20560;-77
2022/09/24 01:24:51;;;;;;;9.35;7.25;;;13.80;99.90;;;;;;5064519;28;20604;-76
2022/09/24 01:27:21;;;;;;;12.85;7.97;;;13.80;99.90;;;;;;5066970;28;20036;-76
2022/09/24 01:30:11;;;;;;;9.20;7.43;;;13.70;99.90;;;;;;5079942;28;20572;-76
2022/09/24 01:32:50;;;;;;;10.35;7.63;;;13.80;99.90;;;;;;5068222;28;20028;-76
2022/09/24 01:35:25;;;;;;;9.65;7.55;;;13.70;99.90;;;;;;5069876;28;20761;-76
2022/09/24 01:37:58;;;;;;;8.98;7.00;;;13.70;99.90;;;;;;5063772;28;20512;-76
2022/09/24 01:40:26;;;;;;;13.77;8.05;;;13.70;99.90;;;;;;5061230;28;20434;-77
2022/09/24 01:42:55;;;;;;;12.85;8.38;;;13.70;99.90;;;;;;5066780;28;20044;-76
2022/09/24 01:45:21;;;;;;;14.95;8.50;;;13.70;99.90;;;;;;5066016;28;20035;-76
2022/09/24 01:47:48;;;;;;;11.10;8.27;;;13.70;99.90;;;;;;5067118;28;20149;-76
2022/09/24 01:50:16;;;;;;;10.68;8.05;;;13.70;99.90;;;;;;5066803;28;20060;-76
2022/09/24 01:52:59;;;;;;;11.05;8.15;;;13.70;99.90;;;;;;5043752;28;20564;-76
2022/09/24 01:55:28;;;;;;;10.20;8.77;;;13.70;99.90;;;;;;5046945;28;20032;-76
2022/09/24 01:58:06;;;;;;;13.18;9.00;;;13.70;99.90;;;;;;5065331;28;20086;-77
2022/09/24 02:00:32;;;;;;;13.32;8.25;;;13.70;99.90;;;;;;5067685;28;20093;-76
2022/09/24 02:03:10;;;;;;;12.82;9.05;;;13.70;99.90;;;;;;5066501;28;20071;-76
2022/09/24 02:06:02;;;;;;;11.40;9.30;;;13.70;99.90;;;;;;5062276;28;20028;-76
2022/09/24 02:08:36;;;;;;;11.43;9.15;;;13.70;99.90;;;;;;5070044;28;20056;-76
2022/09/24 02:11:13;;;;;;;13.25;9.80;;;13.70;99.90;;;;;;5064979;28;20027;-76
2022/09/24 02:13:45;;;;;;;12.80;9.48;;;13.70;99.90;;;;;;5069687;28;20028;-77
2022/09/24 02:16:15;;;;;;;11.98;8.82;;;13.60;99.90;;;;;;5059667;28;20021;-77
2022/09/24 02:18:46;;;;;;;12.70;9.60;;;13.70;99.90;;;;;;5065090;28;20035;-76
2022/09/24 02:21:14;;;;;;;11.50;9.90;;;13.60;99.90;;;;;;5061080;28;20032;-76
2022/09/24 02:23:46;;;;;;;14.70;10.27;;;13.60;99.90;;;;;;5063708;28;20039;-77
2022/09/24 02:26:12;;;;;;;13.27;9.95;;;13.60;99.90;;;;;;5064102;28;20028;-76
2022/09/24 02:28:39;;;;;;;11.77;10.10;;;13.60;99.90;;;;;;5067175;28;20112;-76
2022/09/24 02:31:16;;;;;;;15.23;10.73;;;13.60;99.90;;;;;;5066124;28;20029;-76
2022/09/24 02:36:31;;;;;;;15.27;11.32;;;13.60;99.90;;;;;;5066530;28;20059;-76
2022/09/24 02:38:57;;;;;;;15.70;11.27;;;13.60;99.90;;;;;;5065459;28;20086;-77
2022/09/24 02:41:23;;;;;;;15.18;10.68;;;13.60;99.90;;;;;;5059711;28;20477;-76
2022/09/24 02:43:52;;;;;;;13.27;10.32;;;13.60;99.90;;;;;;5068033;28;20110;-76
2022/09/24 02:46:18;;;;;;;17.33;11.30;;;13.60;99.90;;;;;;5064672;28;20103;-76
2022/09/24 02:48:44;;;;;;;14.98;10.68;;;13.60;99.90;;;;;;5067567;28;20115;-76
2022/09/24 02:51:09;;;;;;;15.45;10.98;;;13.60;99.90;;;;;;5067587;28;20032;-76
2022/09/24 02:53:35;;;;;;;16.35;11.30;;;13.60;99.90;;;;;;5047888;28;20032;-77
2022/09/24 02:56:01;;;;;;;14.00;11.07;;;13.60;99.90;;;;;;5065210;28;20039;-77
2022/09/24 02:58:28;;;;;;;14.25;11.30;;;13.60;99.90;;;;;;5066225;28;20055;-76
2022/09/24 03:00:56;;;;;;;15.98;12.27;;;13.60;99.90;;;;;;5066451;28;20111;-76
2022/09/24 03:03:22;;;;;;;15.50;11.98;;;13.60;99.90;;;;;;5069996;28;20242;-77
2022/09/24 03:05:51;;;;;;;16.83;12.35;;;13.60;99.90;;;;;;5066588;28;20154;-76
2022/09/24 03:08:20;;;;;;;15.13;12.68;;;13.60;99.90;;;;;;5066846;28;20021;-76
2022/09/24 03:10:46;;;;;;;20.30;14.07;;;13.60;99.90;;;;;;5064108;28;20025;-75
2022/09/24 03:13:12;;;;;;;19.75;14.18;;;13.60;99.90;;;;;;5062612;28;20031;-76
2022/09/24 03:15:38;;;;;;;19.95;13.98;;;13.60;99.90;;;;;;5048804;28;20028;-76
2022/09/24 03:18:04;;;;;;;22.58;15.48;;;13.50;99.90;;;;;;5068560;28;20542;-76
2022/09/24 03:20:30;;;;;;;20.10;14.35;;;13.50;99.90;;;;;;5063299;28;20078;-77
2022/09/24 03:22:55;;;;;;;18.95;14.32;;;13.60;99.90;;;;;;5064255;28;20029;-76
2022/09/24 03:25:21;;;;;;;19.08;15.18;;;13.50;99.90;;;;;;5060891;28;20214;-77
2022/09/24 03:27:47;;;;;;;18.23;14.13;;;13.50;99.90;;;;;;5048459;28;20439;-76
2022/09/24 03:32:58;;;;;;;16.08;13.32;;;13.50;99.90;;;;;;5065960;28;20087;-77
2022/09/24 03:35:24;;;;;;;18.17;14.48;;;13.50;99.90;;;;;;5064751;28;20028;-77
2022/09/24 03:37:50;;;;;;;18.48;13.80;;;13.50;99.90;;;;;;5070694;28;20408;-77
2022/09/24 03:40:16;;;;;;;17.50;13.15;;;13.50;99.90;;;;;;5065831;28;20052;-77
2022/09/24 03:42:41;;;;;;;19.20;13.48;;;13.50;99.90;;;;;;5069311;28;20028;-77
2022/09/24 03:45:07;;;;;;;21.00;13.73;;;13.50;99.90;;;;;;5069920;28;20373;-77
2022/09/24 03:47:33;;;;;;;19.08;13.23;;;13.50;99.90;;;;;;5068197;28;20039;-76
2022/09/24 03:49:59;;;;;;;18.40;13.77;;;13.50;99.90;;;;;;5063216;28;20035;-76
2022/09/24 03:52:25;;;;;;;17.55;13.75;;;13.50;99.90;;;;;;5066989;28;20032;-76
2022/09/24 03:54:51;;;;;;;25.80;15.15;;;13.50;99.90;;;;;;5071551;28;20111;-76
2022/09/24 03:57:17;;;;;;;22.35;14.60;;;13.50;99.90;;;;;;5071061;28;20055;-76
2022/09/24 03:59:43;;;;;;;16.77;13.13;;;13.50;99.90;;;;;;5056361;28;20051;-76
2022/09/24 04:02:10;;;;;;;19.55;14.27;;;13.50;99.90;;;;;;5070110;28;20025;-77
2022/09/24 04:04:36;;;;;;;21.70;13.93;;;13.50;99.90;;;;;;5059977;28;20115;-77
2022/09/24 04:07:02;;;;;;;21.30;15.15;;;13.50;99.90;;;;;;5066347;28;20132;-77
2022/09/24 04:09:28;;;;;;;20.08;14.55;;;13.50;99.90;;;;;;5045102;28;20035;-77
2022/09/24 04:11:53;;;;;;;18.33;13.73;;;13.50;99.90;;;;;;5066916;28;20024;-77
2022/09/24 04:14:19;;;;;;;17.27;14.15;;;13.50;99.90;;;;;;5062781;28;20064;-75
2022/09/24 04:16:45;;;;;;;20.35;14.15;;;13.50;99.90;;;;;;5067827;28;20027;-76
2022/09/24 04:19:14;;;;;;;21.63;15.68;;;13.50;99.90;;;;;;5044097;28;20032;-77
2022/09/24 04:21:46;;;;;;;19.88;15.52;;;13.50;99.90;;;;;;5060615;28;20020;-77
2022/09/24 04:24:12;;;;;;;19.90;15.25;;;13.50;99.90;;;;;;5046527;28;20115;-77
2022/09/24 04:26:38;;;;;;;21.10;15.73;;;13.50;99.90;;;;;;5063677;28;20117;-76
2022/09/24 04:29:05;;;;;;;22.92;16.27;;;13.50;99.90;;;;;;5044767;28;20024;-76
2022/09/24 04:31:33;;;;;;;21.83;15.98;;;13.50;99.90;;;;;;5059171;28;20048;-77
2022/09/24 04:33:59;;;;;;;23.50;16.50;;;13.50;99.90;;;;;;5065222;28;20021;-77
2022/09/24 04:36:25;;;;;;;23.42;16.70;;;13.40;99.90;;;;;;5064039;28;20074;-77
2022/09/24 04:38:50;;;;;;;21.85;16.48;;;13.40;99.90;;;;;;5065385;28;20031;-77
2022/09/24 04:41:16;;;;;;;21.05;16.38;;;13.40;99.90;;;;;;5063335;28;20028;-76
2022/09/24 04:43:45;;;;;;;22.40;16.83;;;13.40;99.90;;;;;;5066752;28;20028;-75
2022/09/24 04:46:12;;;;;;;22.13;17.27;;;13.40;99.90;;;;;;5053357;28;20059;-77
2022/09/24 04:48:38;;;;;;;24.65;17.20;;;13.40;99.90;;;;;;5075373;28;20510;-76
2022/09/24 04:51:09;;;;;;;21.80;16.30;;;13.40;99.90;;;;;;5075719;28;20028;-77
2022/09/24 04:53:36;;;;;;;25.48;17.55;;;13.40;99.90;;;;;;5064983;28;20036;-77
2022/09/24 04:56:10;;;;;;;23.45;17.17;;;13.40;99.90;;;;;;5065847;28;20297;-77
2022/09/24 04:58:35;;;;;;;23.73;17.70;;;13.40;99.90;;;;;;5068926;28;20016;-77
2022/09/24 05:01:02;;;;;;;25.13;18.17;;;13.40;99.90;;;;;;5066141;28;20027;-75
2022/09/24 05:03:28;;;;;;;21.20;16.75;;;13.40;99.90;;;;;;5069578;28;20588;-77
2022/09/24 05:05:55;;;;;;;20.77;15.82;;;13.40;99.90;;;;;;5066025;28;20175;-77
2022/09/24 05:08:21;;;;;;;23.42;16.15;;;13.40;99.90;;;;;;5068651;28;20789;-77
2022/09/24 05:10:47;;;;;;;22.02;15.27;;;13.40;99.90;;;;;;5066154;28;20020;-77
2022/09/24 05:13:13;;;;;;;22.40;16.80;;;13.30;99.90;;;;;;5068001;28;20563;-76
2022/09/24 05:15:38;;;;;;;22.88;16.65;;;13.30;99.90;;;;;;5067679;28;20040;-76
2022/09/24 05:18:05;;;;;;;20.60;16.02;;;13.40;99.90;;;;;;5061477;28;20028;-77
2022/09/24 05:20:31;;;;;;;19.77;15.10;;;13.30;99.90;;;;;;5067145;28;20119;-77
2022/09/24 05:22:56;;;;;;;20.27;14.52;;;13.30;99.90;;;;;;5068507;28;20043;-77
2022/09/24 05:25:22;;;;;;;12.10;8.35;;;13.30;99.90;;;;;;5065081;28;20043;-77
2022/09/24 05:27:50;;;;;;;9.93;7.13;;;13.40;99.90;;;;;;5067674;28;20020;-76
2022/09/24 05:30:17;;;;;;;17.88;12.57;;;14.60;99.90;;;;;;5069711;28;20120;-76
2022/09/24 05:32:43;;;;;;;18.13;13.68;;;14.50;99.90;;;;;;5066385;28;20543;-78
2022/09/24 05:35:09;;;;;;;24.25;14.77;;;14.20;99.90;;;;;;5065067;28;20028;-76
2022/09/24 05:37:37;;;;;;;17.48;12.85;;;13.90;99.90;;;;;;5063172;28;20074;-76
2022/09/24 05:42:59;;;;;;;18.77;14.07;;;13.60;99.90;;;;;;5067885;28;20021;-76
2022/09/24 05:45:24;;;;;;;18.73;13.60;;;13.50;99.90;;;;;;5060024;28;20033;-76
2022/09/24 05:47:52;;;;;;;17.55;13.57;;;13.40;99.90;;;;;;5058276;28;20040;-77
2022/09/24 05:50:17;;;;;;;18.92;13.02;;;13.40;99.90;;;;;;5068133;28;20036;-77
2022/09/24 05:52:43;;;;;;;14.45;12.02;;;13.40;99.90;;;;;;5058575;28;20048;-77
2022/09/24 05:55:09;;;;;;;15.45;12.57;;;13.40;99.90;;;;;;5060274;28;20367;-77
2022/09/24 05:57:35;;;;;;;17.83;12.82;;;13.40;99.90;;;;;;5036082;28;20016;-77
2022/09/24 06:00:02;;;;;;;17.95;12.50;;;13.30;99.90;;;;;;5068381;28;20783;-77
2022/09/24 06:02:28;;;;;;;17.73;12.00;;;13.30;99.90;;;;;;5067318;28;20021;-77
2022/09/24 06:04:53;;;;;;;15.65;11.75;;;13.30;99.90;;;;;;5066532;28;20028;-77
2022/09/24 06:07:20;;;;;;;15.75;11.82;;;13.30;99.90;;;;;;5065602;28;20032;-77
2022/09/24 06:09:46;;;;;;;14.60;11.50;;;13.30;99.90;;;;;;5061618;28;20477;-76
2022/09/24 06:12:13;;;;;;;13.70;11.18;;;13.20;99.90;;;;;;5048206;28;20032;-77
2022/09/24 06:14:41;;;;;;;14.45;11.75;;;13.20;99.90;;;;;;5049603;28;20045;-77
2022/09/24 06:17:07;;;;;;;14.25;11.35;;;13.20;99.90;;;;;;5067928;28;20044;-77
2022/09/24 06:19:33;;;;;;;15.40;11.80;;;13.20;99.90;;;;;;5067780;28;20488;-76
2022/09/24 06:21:59;;;;;;;17.27;12.15;;;13.20;99.90;;;;;;5064117;28;20032;-76
2022/09/24 06:24:24;;;;;;;14.40;10.82;;;13.20;99.90;;;;;;5063297;28;20690;-76
2022/09/24 06:26:51;;;;;;;18.17;13.75;;;13.20;99.90;;;;;;5064825;28;20047;-77
2022/09/24 06:29:17;;;;;;;16.55;12.45;;;13.10;99.90;;;;;;5066727;28;20035;-77
2022/09/24 06:31:44;;;;;;;22.35;13.30;;;13.10;99.90;;;;;;5064847;28;20099;-76
2022/09/24 06:34:10;;;;;;;22.13;15.07;;;13.00;99.90;;;;;;5046214;28;20032;-77
2022/09/24 06:36:36;;;;;;;20.88;14.40;;;13.00;99.90;;;;;;5064996;28;20496;-76
2022/09/24 06:39:01;;;;;;;20.58;15.63;;;13.00;99.90;;;;;;5067841;28;20487;-77
2022/09/24 06:41:27;;;;;;;20.17;16.23;;;13.00;99.90;;;;;;5066249;28;20028;-76
2022/09/24 06:43:54;;;;;;;22.70;16.35;;;13.00;99.90;;;;;;5066215;28;20024;-78
2022/09/24 06:46:21;;;;;;;22.52;17.58;;;12.90;99.90;;;;;;5058086;28;20028;-77
2022/09/24 06:48:48;;;;;;;27.25;18.58;;;12.90;99.90;;;;;;5069078;28;20024;-77
2022/09/24 06:51:14;;;;;;;24.67;18.15;;;12.90;99.90;;;;;;5062266;28;20107;-77
2022/09/24 06:53:41;;;;;;;26.55;18.00;;;12.80;99.90;;;;;;5054468;28;20107;-78
2022/09/24 06:56:06;;;;;;;22.13;16.50;;;12.80;99.90;;;;;;5086410;28;20029;-79
2022/09/24 06:58:35;;;;;;;29.77;18.88;;;12.80;99.90;;;;;;5060582;28;20055;-77
2022/09/24 07:01:03;;;;;;;23.60;17.70;;;12.80;99.90;;;;;;5066234;28;20031;-77
2022/09/24 07:03:31;;;;;;;23.23;17.67;;;12.80;99.90;;;;;;5067511;28;20123;-76
2022/09/24 07:06:00;;;;;;;26.35;18.95;;;12.80;99.90;;;;;;5067102;28;20040;-76
2022/09/24 07:08:26;;;;;;;24.60;18.52;;;12.80;99.90;;;;;;5063134;28;20078;-78
2022/09/24 07:10:52;;;;;;;26.42;18.45;;;12.80;99.90;;;;;;5071869;28;20020;-79
2022/09/24 07:13:20;;;;;;;29.05;20.30;;;12.80;99.90;;;;;;5066909;28;20028;-78
2022/09/24 07:15:46;;;;;;;26.65;20.02;;;12.80;99.90;;;;;;5065834;28;20485;-76
2022/09/24 07:18:12;;;;;;;26.85;20.10;;;12.70;99.90;;;;;;5063125;28;20035;-77
2022/09/24 07:20:38;;;;;;;28.60;20.13;;;12.70;99.90;;;;;;5050301;28;20025;-76
2022/09/24 07:23:05;;;;;;;25.77;20.10;;;12.70;99.90;;;;;;5061217;28;20416;-77
2022/09/24 07:25:31;;;;;;;28.30;21.55;;;12.60;99.90;;;;;;5048756;28;20044;-78
2022/09/24 07:28:06;;;;;;;28.73;19.88;;;12.70;99.90;;;;;;5053048;28;20021;-77
2022/09/24 07:30:32;;;;;;;28.38;19.85;;;12.70;99.90;;;;;;5065070;28;20492;-75
2022/09/24 07:32:58;;;;;;;29.42;21.25;;;12.70;99.90;;;;;;5065381;28;20028;-75
2022/09/24 07:35:26;;;;;;;34.03;22.38;;;12.60;99.90;;;;;;5061674;28;20098;-76
2022/09/24 07:37:57;;;;;;;35.75;22.52;;;12.60;99.90;;;;;;5084432;28;20496;-76
2022/09/24 07:40:23;;;;;;;32.55;23.30;;;12.60;99.90;;;;;;5040883;28;20081;-76
2022/09/24 07:42:49;;;;;;;30.70;21.83;;;12.50;99.90;;;;;;5069177;28;20070;-77
2022/09/24 07:45:16;;;;;;;32.75;22.15;;;12.50;99.90;;;;;;5063928;28;20032;-77
2022/09/24 07:47:42;;;;;;;32.55;22.52;;;12.50;99.90;;;;;;5066670;28;20082;-76
2022/09/24 07:50:08;;;;;;;32.78;23.27;;;12.50;99.90;;;;;;5060646;28;20488;-76
2022/09/24 07:52:34;;;;;;;38.30;25.48;;;12.50;99.90;;;;;;5058147;28;20097;-76
2022/09/24 07:55:00;;;;;;;36.70;25.88;;;12.50;99.90;;;;;;5065208;28;20060;-77
2022/09/24 07:57:26;;;;;;;39.20;25.08;;;12.50;99.90;;;;;;5062284;28;21315;-77
2022/09/24 07:59:52;;;;;;;37.00;26.42;;;12.50;99.90;;;;;;5045328;28;20025;-77
2022/09/24 08:02:19;;;;;;;36.05;24.63;;;12.40;99.90;;;;;;5050419;28;20056;-76
2022/09/24 08:04:45;;;;;;;39.30;27.20;;;12.50;99.90;;;;;;5058316;28;20127;-77
2022/09/24 08:07:12;;;;;;;37.40;26.30;;;12.50;99.90;;;;;;5081326;28;20024;-77
2022/09/24 08:09:38;;;;;;;39.22;26.02;;;12.50;99.90;;;;;;5039891;28;20029;-76
2022/09/24 08:12:05;;;;;;;39.70;25.85;;;12.50;99.90;;;;;;5051543;28;20373;-77
2022/09/24 08:14:30;;;;;;;41.90;25.13;;;12.40;99.90;;;;;;5048550;28;20039;-78
2022/09/24 08:16:56;;;;;;;39.38;25.48;;;12.50;99.90;;;;;;5058072;28;20028;-78
2022/09/24 08:19:22;;;;;;;38.78;26.45;;;12.50;99.90;;;;;;5066268;28;20028;-77
2022/09/24 08:21:48;;;;;;;39.38;26.55;;;12.50;99.90;;;;;;5062188;28;20028;-77
2022/09/24 08:24:14;;;;;;;38.15;24.17;;;12.50;99.90;;;;;;5068894;28;20106;-77
2022/09/24 08:26:41;;;;;;;37.60;25.92;;;12.50;99.90;;;;;;5063712;28;20036;-77
2022/09/24 08:29:06;;;;;;;35.25;23.85;;;12.50;99.90;;;;;;5070213;28;20044;-77
2022/09/24 08:31:33;;;;;;;41.97;25.55;;;12.50;99.90;;;;;;5072528;28;20036;-79
2022/09/24 08:34:00;;;;;;;38.10;24.05;;;12.50;99.90;;;;;;5047113;28;20420;-77
2022/09/24 08:36:26;;;;;;;33.85;23.17;;;12.60;99.90;;;;;;5058734;28;20021;-76
2022/09/24 08:38:55;;;;;;;33.13;22.98;;;12.60;99.90;;;;;;5034598;28;20438;-77
2022/09/24 08:41:42;;;;;;;40.03;24.90;;;12.60;99.90;;;;;;5060110;28;20049;-75
2022/09/24 08:47:21;;;;;;;40.15;23.75;;;12.60;99.90;;;;;;5068338;28;20067;-77
2022/09/24 08:47:22;;;;;;;32.45;21.75;;;12.60;99.90;;;;;;5049438;28;20043;-76
2022/09/24 08:49:54;;;;;;;37.08;24.52;;;12.60;99.90;;;;;;5047445;28;20024;-77
2022/09/24 08:52:40;;;;;;;35.17;22.75;;;12.60;99.90;;;;;;5073451;28;20075;-77
2022/09/24 08:55:13;;;;;;;35.42;23.40;;;12.60;99.90;;;;;;5063770;28;20393;-77
2022/09/24 08:57:48;;;;;;;34.88;23.30;;;12.60;99.90;;;;;;5047090;28;20029;-76
2022/09/24 09:00:14;;;;;;;33.28;21.98;;;12.60;99.90;;;;;;5054742;28;20073;-77
2022/09/24 09:02:46;;;;;;;32.13;23.33;;;12.60;99.90;;;;;;5051446;28;20565;-77
2022/09/24 09:05:29;;;;;;;37.63;25.45;;;12.70;99.90;;;;;;5059643;28;20036;-77
2022/09/24 09:08:12;;;;;;;35.38;24.80;;;12.60;99.90;;;;;;5066484;28;20039;-78
2022/09/24 09:10:41;;;;;;;32.35;22.90;;;12.70;99.90;;;;;;5063938;28;20056;-77
2022/09/24 09:13:17;;;;;;;36.60;23.90;;;12.60;99.90;;;;;;5067541;28;20090;-77
2022/09/24 09:15:47;;;;;;;32.42;22.75;;;12.70;99.90;;;;;;5067543;28;20029;-78
2022/09/24 09:18:31;;;;;;;33.70;24.42;;;12.70;99.90;;;;;;5061210;28;20029;-77
2022/09/24 09:21:23;;;;;;;34.00;24.33;;;12.60;99.90;;;;;;5065655;28;20056;-77
2022/09/24 09:23:51;;;;;;;28.63;22.17;;;12.60;99.90;;;;;;5063763;28;20044;-76
2022/09/24 09:26:19;;;;;;;33.38;23.70;;;12.70;99.90;;;;;;5066863;28;20040;-77
2022/09/24 09:28:46;;;;;;;43.50;27.50;;;12.60;99.90;;;;;;5067236;28;20041;-76
2022/09/24 09:31:30;;;;;;;38.65;26.13;;;12.60;99.90;;;;;;5068285;28;20033;-77
2022/09/24 09:34:17;;;;;;;43.78;27.55;;;12.70;99.90;;;;;;5043761;28;20034;-76
2022/09/24 09:36:57;;;;;;;48.17;29.85;;;12.60;99.90;;;;;;5071775;28;20553;-77
2022/09/24 09:39:45;;;;;;;48.08;31.52;;;12.60;99.90;;;;;;5068521;28;20039;-76
2022/09/24 09:42:35;;;;;;;35.67;21.55;;;12.70;99.90;;;;;;5062824;28;20107;-77
2022/09/24 09:45:32;;;;;;;51.92;32.00;;;13.00;99.90;;;;;;5040378;28;20040;-77
2022/09/24 09:47:59;;;;;;;41.10;26.50;;;12.90;99.90;;;;;;5062174;28;20029;-76
2022/09/24 09:50:45;;;;;;;43.78;27.92;;;12.90;99.90;;;;;;5067351;28;20025;-77
2022/09/24 09:53:22;;;;;;;48.63;29.48;;;12.90;99.90;;;;;;5045813;28;20411;-76
2022/09/24 09:56:00;;;;;;;42.20;29.17;;;12.90;99.90;;;;;;5062783;28;20114;-76
2022/09/24 09:59:01;;;;;;;54.83;32.03;;;12.90;99.90;;;;;;5067961;28;20396;-76
2022/09/24 10:01:33;;;;;;;49.17;30.15;;;12.90;99.90;;;;;;5051519;28;20069;-77
2022/09/24 10:04:03;;;;;;;46.72;29.40;;;12.80;99.90;;;;;;5063545;28;20047;-76
2022/09/24 10:06:36;;;;;;;45.83;29.20;;;12.80;99.90;;;;;;5071002;28;20487;-78
2022/09/24 10:09:21;;;;;;;52.90;32.22;;;12.80;99.90;;;;;;5061519;28;20287;-76
2022/09/24 10:11:47;;;;;;;53.42;32.25;;;12.80;99.90;;;;;;5047447;28;20460;-77
2022/09/24 10:14:15;;;;;;;47.20;29.95;;;12.90;99.90;;;;;;5069293;28;20427;-77
2022/09/24 10:16:44;;;;;;;49.85;31.55;;;12.80;99.90;;;;;;5064134;28;20037;-77
2022/09/24 10:19:21;;;;;;;48.78;31.58;;;12.80;99.90;;;;;;5068395;28;20540;-77
2022/09/24 10:21:48;;;;;;;48.10;30.55;;;12.90;99.90;;;;;;5068048;28;20035;-77
2022/09/24 10:24:21;;;;;;;51.55;31.23;;;12.90;99.90;;;;;;5066314;28;20095;-78
2022/09/24 10:26:48;;;;;;;51.92;30.75;;;13.00;99.90;;;;;;5070198;28;20037;-78
2022/09/24 10:32:21;;;;;;;47.83;29.05;;;13.00;99.90;;;;;;5068011;28;20034;-78
2022/09/24 10:35:01;;;;;;;50.05;32.65;;;13.00;99.90;;;;;;5066499;28;20033;-80
2022/09/24 10:37:28;;;;;;;52.83;31.77;;;13.00;99.90;;;;;;5055539;28;20120;-77
2022/09/24 10:40:10;;;;;;;47.13;31.33;;;13.00;99.90;;;;;;5057708;28;20040;-76
2022/09/24 10:42:36;;;;;;;40.13;26.70;;;13.00;99.90;;;;;;5067745;28;20078;-77
2022/09/24 10:45:03;;;;;;;45.55;28.50;;;13.00;99.90;;;;;;5041606;28;20087;-77
2022/09/24 10:47:54;;;;;;;45.92;30.00;;;13.00;99.90;;;;;;5071177;28;20020;-78
2022/09/24 10:50:39;;;;;;;47.65;31.48;;;13.00;99.90;;;;;;5067030;28;20056;-77
2022/09/24 10:53:16;;;;;;;51.28;31.45;;;13.00;99.90;;;;;;5070853;28;20046;-77
2022/09/24 10:55:51;;;;;;;40.67;27.83;;;13.00;99.90;;;;;;5050188;28;20033;-77
2022/09/24 10:58:40;;;;;;;40.75;28.38;;;13.00;99.90;;;;;;5068844;28;20104;-77
2022/09/24 11:01:18;;;;;;;46.95;30.10;;;13.10;99.90;;;;;;5068728;28;20016;-78
2022/09/24 11:04:01;;;;;;;40.13;28.73;;;13.10;99.90;;;;;;5072533;28;20013;-77
2022/09/24 11:06:46;;;;;;;29.80;19.42;;;13.00;99.90;;;;;;5085650;28;20051;-77
2022/09/24 11:09:37;;;;;;;53.63;33.03;;;13.30;99.90;;;;;;5069793;28;20115;-78
2022/09/24 11:12:19;;;;;;;45.63;29.05;;;13.30;99.90;;;;;;5066743;28;20024;-77
2022/09/24 11:15:18;;;;;;;45.60;29.38;;;13.30;99.90;;;;;;5054824;28;20017;-77
2022/09/24 11:18:03;;;;;;;48.28;30.73;;;13.20;99.90;;;;;;5065182;28;20021;-77
2022/09/24 11:20:35;;;;;;;49.80;32.75;;;13.20;99.90;;;;;;5049374;28;20029;-77
2022/09/24 11:23:32;;;;;;;45.88;30.90;;;13.10;99.90;;;;;;5056775;28;20047;-77
2022/09/24 11:26:20;;;;;;;47.20;31.67;;;13.20;99.90;;;;;;5063365;28;20125;-77
2022/09/24 11:29:11;;;;;;;48.00;32.28;;;13.20;99.90;;;;;;5059658;28;20557;-77
2022/09/24 11:32:05;;;;;;;49.30;32.13;;;13.20;99.90;;;;;;5071620;28;20024;-77
2022/09/24 11:34:49;;;;;;;60.03;36.90;;;13.20;99.90;;;;;;5055690;28;20109;-78
2022/09/24 11:37:38;;;;;;;45.42;31.25;;;13.20;99.90;;;;;;5061161;28;20139;-79
2022/09/24 11:40:28;;;;;;;51.85;33.35;;;13.20;99.90;;;;;;5067841;28;20028;-77
2022/09/24 11:43:37;;;;;;;49.30;32.42;;;13.20;99.90;;;;;;5060218;28;20032;-77
2022/09/24 11:46:21;;;;;;;52.85;34.55;;;13.20;99.90;;;;;;5011541;28;20037;-78
2022/09/24 11:49:20;;;;;;;51.65;33.20;;;13.20;99.90;;;;;;5067240;28;20043;-78
2022/09/24 11:52:22;;;;;;;46.97;30.85;;;13.20;99.90;;;;;;5060672;28;20493;-77
2022/09/24 11:55:14;;;;;;;51.72;32.22;;;13.20;99.90;;;;;;5064432;28;20028;-77
2022/09/24 11:58:15;;;;;;;54.70;34.05;;;13.20;99.90;;;;;;5052993;28;20025;-77
2022/09/24 12:00:48;;;;;;;44.40;30.10;;;13.30;99.90;;;;;;5033531;28;20048;-79
2022/09/24 12:03:30;;;;;;;38.00;26.50;;;13.30;99.90;;;;;;5083543;28;20376;-77
2022/09/24 12:06:05;;;;;;;111.03;68.35;;;13.30;99.90;;;;;;5066908;28;20035;-77
2022/09/24 12:08:38;;;;;;;108.60;70.10;;;13.30;99.90;;;;;;5069822;28;20039;-77
2022/09/24 12:11:32;;;;;;;67.85;44.88;;;13.30;99.90;;;;;;5069857;28;20036;-77
2022/09/24 12:14:09;;;;;;;66.80;41.45;;;13.30;99.90;;;;;;5051092;28;20052;-78
2022/09/24 12:16:43;;;;;;;60.13;38.13;;;13.40;99.90;;;;;;5068103;28;20021;-77
2022/09/24 12:19:11;;;;;;;44.95;31.05;;;13.40;99.90;;;;;;5068395;28;20025;-77
2022/09/24 12:21:40;;;;;;;48.70;32.53;;;13.40;99.90;;;;;;5060343;28;20095;-78
2022/09/24 12:24:30;;;;;;;47.13;30.42;;;13.40;99.90;;;;;;5070687;28;20058;-78
2022/09/24 12:26:58;;;;;;;50.42;34.22;;;13.40;99.90;;;;;;5046732;28;20090;-78
2022/09/24 12:33:00;;;;;;;41.63;28.38;;;13.40;99.90;;;;;;5067531;28;20029;-77
2022/09/24 12:35:50;;;;;;;41.85;30.08;;;13.40;99.90;;;;;;5085175;28;20028;-77
2022/09/24 12:38:24;;;;;;;56.38;33.53;;;13.40;99.90;;;;;;5069991;28;20017;-77
2022/09/24 12:41:28;;;;;;;47.00;30.42;;;13.40;99.90;;;;;;5069316;28;20032;-77
2022/09/24 12:44:09;;;;;;;53.85;33.17;;;13.40;99.90;;;;;;5065946;28;20024;-77
2022/09/24 12:46:44;;;;;;;40.90;29.65;;;13.40;99.90;;;;;;5071795;28;20448;-78
2022/09/24 12:49:25;;;;;;;42.70;28.80;;;13.50;99.90;;;;;;5067085;28;20039;-78
2022/09/24 12:52:03;;;;;;;37.40;25.38;;;13.50;99.90;;;;;;5062889;28;20116;-78
2022/09/24 12:54:37;;;;;;;47.25;31.75;;;13.50;99.90;;;;;;5068212;28;20086;-79
2022/09/24 12:57:24;;;;;;;37.50;26.15;;;13.50;99.90;;;;;;5065563;28;20039;-78
2022/09/24 13:00:02;;;;;;;43.97;29.58;;;13.50;99.90;;;;;;5084242;28;20028;-77
2022/09/24 13:02:32;;;;;;;51.35;32.58;;;13.50;99.90;;;;;;5070758;28;20035;-77
2022/09/24 13:05:00;;;;;;;47.83;31.40;;;13.50;99.90;;;;;;5060745;28;20467;-77
2022/09/24 13:07:39;;;;;;;38.35;27.98;;;13.50;99.90;;;;;;5069199;28;20492;-79
2022/09/24 13:10:17;;;;;;;43.75;31.85;;;13.50;99.90;;;;;;5073926;28;20075;-78